Time;durP1;ratioP1;P1;durP2;ratioP2;P2;SDS_P1;SDS_P2;PMS_P1;PMS_P2;Temp;Humidity;BMP_temperature;BMP_pressure;BME280_temperature;BME280_humidity;BME280_pressure;Samples;Min_cycle;Max_cycle;Signal;HPM_P1;HPM_P2
2023/08/21 00:02:15;;;;;;;11.73;8.45;;;13.80;99.90;;;;;;4975259;28;20146;-79
2023/08/21 00:04:44;;;;;;;8.25;6.15;;;13.70;99.90;;;;;;4969240;28;20137;-80
2023/08/21 00:07:16;;;;;;;9.45;8.13;;;13.70;99.90;;;;;;4968227;28;20046;-79
2023/08/21 00:09:51;;;;;;;9.15;7.53;;;13.70;99.90;;;;;;4964436;28;20160;-80
2023/08/21 00:12:27;;;;;;;12.80;10.98;;;13.70;99.90;;;;;;4969137;28;20054;-79
2023/08/21 00:15:03;;;;;;;9.38;8.38;;;13.60;99.90;;;;;;4996128;28;20045;-80
2023/08/21 00:17:31;;;;;;;13.63;10.57;;;13.60;99.90;;;;;;5003893;28;20037;-79
2023/08/21 00:20:04;;;;;;;12.30;9.82;;;13.50;99.90;;;;;;4971727;28;20212;-79
2023/08/21 00:22:31;;;;;;;10.00;8.25;;;13.50;99.90;;;;;;4975175;28;20053;-80
2023/08/21 00:24:58;;;;;;;11.57;10.25;;;13.50;99.90;;;;;;4959525;28;20073;-81
2023/08/21 00:27:24;;;;;;;10.25;9.23;;;13.40;99.90;;;;;;4987022;28;20080;-80
2023/08/21 00:29:51;;;;;;;11.20;10.05;;;13.40;99.90;;;;;;4971950;28;20038;-79
2023/08/21 00:32:21;;;;;;;11.68;10.00;;;13.40;99.90;;;;;;4975457;28;20043;-79
2023/08/21 00:34:50;;;;;;;11.27;9.85;;;13.40;99.90;;;;;;4960788;28;20065;-79
2023/08/21 00:37:20;;;;;;;26.30;17.98;;;13.30;99.90;;;;;;4980140;28;20536;-79
2023/08/21 00:39:46;;;;;;;10.55;9.50;;;13.40;99.90;;;;;;4966765;28;20097;-80
2023/08/21 00:42:18;;;;;;;10.38;9.48;;;13.40;99.90;;;;;;4976349;28;20043;-79
2023/08/21 00:44:48;;;;;;;10.07;9.13;;;13.30;99.90;;;;;;4967747;28;20034;-80
2023/08/21 00:47:21;;;;;;;8.38;7.53;;;13.30;99.90;;;;;;4967394;28;20046;-79
2023/08/21 00:49:53;;;;;;;10.55;9.55;;;13.30;99.90;;;;;;4988122;28;20420;-81
2023/08/21 00:52:27;;;;;;;12.93;11.60;;;13.40;99.90;;;;;;4967915;28;20054;-81
2023/08/21 00:55:02;;;;;;;8.85;8.05;;;13.20;99.90;;;;;;4963412;28;20043;-81
2023/08/21 00:57:42;;;;;;;10.90;9.13;;;13.20;99.90;;;;;;4978317;28;20046;-80
2023/08/21 01:00:12;;;;;;;8.70;7.90;;;13.20;99.90;;;;;;4965045;28;20041;-81
2023/08/21 01:02:39;;;;;;;11.25;9.55;;;13.10;99.90;;;;;;4982184;28;20496;-81
2023/08/21 01:05:13;;;;;;;14.25;12.85;;;13.10;99.90;;;;;;4974210;28;20034;-81
2023/08/21 01:07:56;;;;;;;11.98;10.70;;;13.10;99.90;;;;;;4994979;28;20128;-81
2023/08/21 01:10:46;;;;;;;12.25;11.07;;;13.00;99.90;;;;;;4960813;28;20065;-81
2023/08/21 01:13:55;;;;;;;12.40;11.20;;;13.00;99.90;;;;;;4942747;28;20043;-80
2023/08/21 01:16:25;;;;;;;13.68;12.40;;;13.00;99.90;;;;;;4964355;28;20041;-81
2023/08/21 01:18:54;;;;;;;21.75;15.40;;;13.00;99.90;;;;;;4974983;28;20096;-81
2023/08/21 01:21:21;;;;;;;10.60;9.30;;;13.00;99.90;;;;;;4973447;28;20383;-81
2023/08/21 01:23:50;;;;;;;11.68;10.60;;;13.00;99.90;;;;;;4957935;28;20050;-81
2023/08/21 01:26:16;;;;;;;11.82;10.82;;;12.90;99.90;;;;;;4958013;28;20120;-81
2023/08/21 01:28:42;;;;;;;13.15;11.75;;;12.90;99.90;;;;;;4958805;28;20108;-81
2023/08/21 01:31:26;;;;;;;13.05;11.63;;;12.90;99.90;;;;;;4959811;28;20038;-81
2023/08/21 01:33:57;;;;;;;12.68;11.40;;;12.90;99.90;;;;;;4973714;28;20050;-82
2023/08/21 01:36:27;;;;;;;10.65;9.65;;;12.90;99.90;;;;;;4992417;28;20053;-82
2023/08/21 01:38:55;;;;;;;11.70;10.57;;;12.90;99.90;;;;;;4958051;28;20038;-81
2023/08/21 01:41:27;;;;;;;18.88;16.42;;;12.80;99.90;;;;;;4973352;28;20046;-80
2023/08/21 01:43:59;;;;;;;14.45;13.15;;;12.90;99.90;;;;;;4982016;28;20045;-81
2023/08/21 01:46:33;;;;;;;15.93;14.45;;;12.80;99.90;;;;;;4960643;28;20074;-81
2023/08/21 01:49:01;;;;;;;17.05;15.23;;;12.80;99.90;;;;;;4941568;28;20397;-81
2023/08/21 01:51:28;;;;;;;14.77;13.30;;;12.80;99.90;;;;;;4956679;28;20049;-81
2023/08/21 01:54:02;;;;;;;14.23;12.80;;;12.80;99.90;;;;;;4977073;28;20063;-81
2023/08/21 01:56:49;;;;;;;13.02;11.88;;;12.80;99.90;;;;;;4989440;28;20046;-80
2023/08/21 01:59:21;;;;;;;15.20;13.75;;;12.80;99.90;;;;;;4981410;28;20481;-80
2023/08/21 02:02:08;;;;;;;13.50;11.73;;;12.80;99.90;;;;;;4992253;28;20038;-79
2023/08/21 02:04:50;;;;;;;;;;;;;;;;;;;;;
2023/08/21 02:07:35;;;;;;;15.05;13.70;;;12.60;99.90;;;;;;4980332;28;20057;-79
2023/08/21 02:10:02;;;;;;;15.25;13.85;;;12.70;99.90;;;;;;4977722;28;20420;-79
2023/08/21 02:12:37;;;;;;;24.05;20.55;;;12.60;99.90;;;;;;4973273;28;20051;-79
2023/08/21 02:15:03;;;;;;;16.33;13.95;;;12.60;99.90;;;;;;4976746;28;20050;-80
2023/08/21 02:17:38;;;;;;;14.27;12.15;;;12.60;99.90;;;;;;4979402;28;20085;-80
2023/08/21 02:20:13;;;;;;;12.98;11.73;;;12.50;99.90;;;;;;4982091;28;20034;-80
2023/08/21 02:22:40;;;;;;;11.82;10.73;;;12.60;99.90;;;;;;4993205;28;20050;-80
2023/08/21 02:25:06;;;;;;;14.05;12.57;;;12.50;99.90;;;;;;4998365;28;20554;-81
2023/08/21 02:27:38;;;;;;;14.50;13.10;;;12.50;99.90;;;;;;5001257;28;20046;-80
2023/08/21 02:30:26;;;;;;;12.80;11.60;;;12.50;99.90;;;;;;4983569;28;20122;-82
2023/08/21 02:32:58;;;;;;;12.10;10.20;;;12.40;99.90;;;;;;4983267;28;20105;-80
2023/08/21 02:35:35;;;;;;;10.38;9.48;;;12.50;99.90;;;;;;4977445;28;20046;-79
2023/08/21 02:38:09;;;;;;;12.07;10.95;;;12.40;99.90;;;;;;4968313;28;20038;-80
2023/08/21 02:40:47;;;;;;;9.40;8.50;;;12.40;99.90;;;;;;4996785;28;20085;-80
2023/08/21 02:43:16;;;;;;;17.10;15.43;;;12.40;99.90;;;;;;4967838;28;20565;-81
2023/08/21 02:45:47;;;;;;;13.82;12.43;;;12.40;99.90;;;;;;4969885;28;20397;-80
2023/08/21 02:48:28;;;;;;;16.77;15.02;;;12.40;99.90;;;;;;4970955;28;20042;-79
2023/08/21 02:50:54;;;;;;;11.55;10.52;;;12.30;99.90;;;;;;4972105;28;20052;-79
2023/08/21 02:53:23;;;;;;;13.48;12.30;;;12.30;99.90;;;;;;4983919;28;20105;-80
2023/08/21 02:55:52;;;;;;;13.57;12.23;;;12.30;99.90;;;;;;4984005;28;20099;-80
2023/08/21 02:58:21;;;;;;;13.55;12.23;;;12.30;99.90;;;;;;4979013;28;20050;-80
2023/08/21 03:00:55;;;;;;;22.70;20.10;;;12.30;99.90;;;;;;4975162;28;20442;-80
2023/08/21 03:03:27;;;;;;;13.07;11.18;;;12.30;99.90;;;;;;5001185;28;20412;-80
2023/08/21 03:06:16;;;;;;;22.35;19.83;;;12.20;99.90;;;;;;4989353;28;20053;-81
2023/08/21 03:08:53;;;;;;;17.85;16.13;;;12.20;99.90;;;;;;4975229;28;20073;-81
2023/08/21 03:11:25;;;;;;;12.63;11.32;;;12.20;99.90;;;;;;4957982;28;20046;-81
2023/08/21 03:13:59;;;;;;;14.48;12.98;;;12.10;99.90;;;;;;4965856;28;20042;-81
2023/08/21 03:16:28;;;;;;;12.48;11.32;;;12.20;99.90;;;;;;4971465;28;20089;-80
2023/08/21 03:21:56;;;;;;;14.27;12.88;;;12.10;99.90;;;;;;4966874;28;20104;-80
2023/08/21 03:24:32;;;;;;;15.55;14.05;;;12.10;99.90;;;;;;4964526;28;20042;-80
2023/08/21 03:26:57;;;;;;;13.18;11.90;;;12.00;99.90;;;;;;4965500;28;20042;-80
2023/08/21 03:29:23;;;;;;;13.90;12.60;;;11.90;99.90;;;;;;4967514;28;20041;-78
2023/08/21 03:31:56;;;;;;;12.88;11.68;;;12.00;99.90;;;;;;4989294;28;20046;-79
2023/08/21 03:34:22;;;;;;;16.10;14.48;;;12.00;99.90;;;;;;4978215;28;20090;-79
2023/08/21 03:36:51;;;;;;;16.23;14.57;;;12.00;99.90;;;;;;4963321;28;20049;-79
2023/08/21 03:39:19;;;;;;;10.73;9.82;;;12.00;99.90;;;;;;4956109;28;20039;-80
2023/08/21 03:41:45;;;;;;;14.48;13.25;;;12.00;99.90;;;;;;4980866;28;20101;-79
2023/08/21 03:44:25;;;;;;;14.50;13.15;;;11.90;99.90;;;;;;4977006;28;20049;-80
2023/08/21 03:47:06;;;;;;;18.08;16.27;;;11.90;99.90;;;;;;4984772;28;20052;-80
2023/08/21 03:49:32;;;;;;;13.73;12.48;;;12.00;99.90;;;;;;4984520;28;20500;-79
2023/08/21 03:51:59;;;;;;;17.35;15.60;;;11.90;99.90;;;;;;4983182;28;20065;-79
2023/08/21 03:54:41;;;;;;;14.98;13.35;;;11.90;99.90;;;;;;4966072;28;20034;-81
2023/08/21 03:57:54;;;;;;;;;;;;;;;;;;;;;
2023/08/21 04:08:56;;;;;;;;;;;;;;;;;;;;;
2023/08/21 04:11:22;;;;;;;11.73;10.63;;;11.80;99.90;;;;;;4942908;28;20057;-80
2023/08/21 04:13:51;;;;;;;12.52;11.20;;;11.70;99.90;;;;;;4961851;28;20034;-79
2023/08/21 04:16:17;;;;;;;12.52;11.43;;;11.70;99.90;;;;;;4976025;28;20048;-79
2023/08/21 04:18:43;;;;;;;11.95;10.73;;;11.70;99.90;;;;;;4979139;28;20560;-79
2023/08/21 04:21:09;;;;;;;17.45;15.60;;;11.80;99.90;;;;;;4983257;28;20045;-80
2023/08/21 04:23:39;;;;;;;11.05;10.00;;;11.80;99.90;;;;;;4983722;28;20039;-81
2023/08/21 04:26:10;;;;;;;13.07;11.77;;;11.80;99.90;;;;;;5002756;28;20125;-81
2023/08/21 04:28:36;;;;;;;16.73;13.73;;;11.80;99.90;;;;;;4996454;28;20049;-80
2023/08/21 04:31:05;;;;;;;12.55;10.85;;;11.90;99.90;;;;;;4996822;28;20136;-80
2023/08/21 04:33:37;;;;;;;12.43;11.30;;;11.80;99.90;;;;;;4994480;28;20041;-80
2023/08/21 04:36:05;;;;;;;11.65;9.57;;;11.80;99.90;;;;;;4996139;28;20054;-80
2023/08/21 04:38:34;;;;;;;40.92;24.15;;;11.80;99.90;;;;;;4979508;28;20045;-80
2023/08/21 04:41:21;;;;;;;;;;;;;;;;;;;;;
2023/08/21 04:43:52;;;;;;;10.88;9.82;;;11.80;99.90;;;;;;4995973;28;20053;-80
2023/08/21 04:46:21;;;;;;;19.08;16.83;;;11.80;99.90;;;;;;4971108;28;20037;-80
2023/08/21 04:48:53;;;;;;;14.65;13.07;;;11.70;99.90;;;;;;4977755;28;20040;-80
2023/08/21 04:51:21;;;;;;;10.73;9.65;;;11.70;99.90;;;;;;4976451;28;20045;-80
2023/08/21 04:53:47;;;;;;;13.40;12.10;;;11.70;99.90;;;;;;4995324;28;20042;-80
2023/08/21 04:56:18;;;;;;;16.15;13.13;;;11.70;99.90;;;;;;4988463;28;20049;-80
2023/08/21 04:58:44;;;;;;;10.20;9.30;;;11.70;99.90;;;;;;4978682;28;20121;-80
2023/08/21 05:01:18;;;;;;;18.58;16.33;;;11.70;99.90;;;;;;4980112;28;20069;-79
2023/08/21 05:03:47;;;;;;;11.05;10.05;;;11.80;99.90;;;;;;4994711;28;20042;-81
2023/08/21 05:06:16;;;;;;;13.23;12.00;;;11.80;99.90;;;;;;4978984;28;20467;-79
2023/08/21 05:08:51;;;;;;;10.52;9.52;;;11.80;99.90;;;;;;4995910;28;20034;-81
2023/08/21 05:11:22;;;;;;;15.98;14.43;;;11.80;99.90;;;;;;4979569;28;20042;-80
2023/08/21 05:13:51;;;;;;;16.48;14.93;;;11.80;99.90;;;;;;4995337;28;20037;-80
2023/08/21 05:16:20;;;;;;;17.45;15.63;;;11.90;99.90;;;;;;4982920;28;20452;-80
2023/08/21 05:18:48;;;;;;;10.60;9.70;;;12.00;99.90;;;;;;4960686;28;20042;-80
2023/08/21 05:21:17;;;;;;;12.15;11.13;;;12.00;99.90;;;;;;4961321;28;20034;-81
2023/08/21 05:23:51;;;;;;;16.25;14.38;;;12.00;99.90;;;;;;4994950;28;20099;-80
2023/08/21 05:26:23;;;;;;;15.32;13.70;;;12.00;99.90;;;;;;4985983;28;20465;-81
2023/08/21 05:28:49;;;;;;;14.60;13.02;;;12.10;99.90;;;;;;4978379;28;20096;-81
2023/08/21 05:31:15;;;;;;;13.40;12.30;;;12.20;99.90;;;;;;4995048;28;20069;-80
2023/08/21 05:33:45;;;;;;;11.70;10.70;;;12.30;99.90;;;;;;4994903;28;20033;-80
2023/08/21 05:36:13;;;;;;;11.00;9.90;;;12.30;99.90;;;;;;4995426;28;20496;-81
2023/08/21 05:38:56;;;;;;;11.73;10.73;;;12.40;99.90;;;;;;4979373;28;20046;-81
2023/08/21 05:41:24;;;;;;;10.77;9.63;;;12.40;99.90;;;;;;4991839;28;20038;-80
2023/08/21 05:44:05;;;;;;;11.60;10.52;;;12.50;99.90;;;;;;4978068;28;20042;-80
2023/08/21 05:46:43;;;;;;;9.85;9.00;;;12.60;99.90;;;;;;4994494;28;20489;-80
2023/08/21 05:49:09;;;;;;;15.02;12.18;;;12.60;99.90;;;;;;4979723;28;20484;-80
2023/08/21 05:51:43;;;;;;;10.65;9.60;;;12.70;99.90;;;;;;4999063;28;20037;-80
2023/08/21 05:54:11;;;;;;;12.05;10.85;;;12.80;99.90;;;;;;4993721;28;20029;-78
2023/08/21 05:56:40;;;;;;;11.90;10.80;;;12.90;99.90;;;;;;4995314;28;20106;-80
2023/08/21 05:59:11;;;;;;;14.48;13.13;;;13.00;99.90;;;;;;5004489;28;20061;-79
2023/08/21 06:01:38;;;;;;;17.13;15.50;;;13.10;99.90;;;;;;4997247;28;20496;-80
2023/08/21 06:04:07;;;;;;;23.45;19.35;;;13.20;99.90;;;;;;4994999;28;20550;-80
2023/08/21 06:06:38;;;;;;;45.63;30.40;;;13.30;99.90;;;;;;4980854;28;20417;-81
2023/08/21 06:09:04;;;;;;;26.42;23.73;;;13.50;99.90;;;;;;5003022;28;20080;-80
2023/08/21 06:11:33;;;;;;;25.27;23.08;;;13.60;99.90;;;;;;5003524;28;20069;-80
2023/08/21 06:14:02;;;;;;;20.77;18.75;;;13.80;99.90;;;;;;4996728;28;20037;-79
2023/08/21 06:16:32;;;;;;;25.58;23.02;;;13.90;99.90;;;;;;5001472;28;20121;-80
2023/08/21 06:19:01;;;;;;;37.13;28.90;;;14.00;99.90;;;;;;4986141;28;20185;-80
2023/08/21 06:21:27;;;;;;;29.70;23.88;;;14.10;99.90;;;;;;4996020;28;20077;-80
2023/08/21 06:23:53;;;;;;;22.27;20.17;;;14.20;99.90;;;;;;5001776;28;20044;-80
2023/08/21 06:26:21;;;;;;;42.30;33.13;;;14.30;99.90;;;;;;5001316;28;20034;-80
2023/08/21 06:28:47;;;;;;;24.13;21.80;;;14.40;99.90;;;;;;4995163;28;20109;-80
2023/08/21 06:31:18;;;;;;;23.70;21.25;;;14.60;99.90;;;;;;4995460;28;20065;-80
2023/08/21 06:33:53;;;;;;;18.98;16.92;;;14.70;99.90;;;;;;5000225;28;20038;-80
2023/08/21 06:36:22;;;;;;;19.38;17.48;;;14.80;99.90;;;;;;4999997;28;20042;-80
2023/08/21 06:38:48;;;;;;;24.30;21.23;;;14.90;99.90;;;;;;4991748;28;20034;-80
2023/08/21 06:41:25;;;;;;;21.23;18.92;;;15.00;99.90;;;;;;5000302;28;20057;-81
2023/08/21 06:43:52;;;;;;;25.85;23.27;;;15.10;99.90;;;;;;4984807;28;20092;-80
2023/08/21 06:46:20;;;;;;;19.27;17.23;;;15.20;99.90;;;;;;4999990;28;20046;-80
2023/08/21 06:48:51;;;;;;;23.45;19.48;;;15.30;99.90;;;;;;5000496;28;20060;-81
2023/08/21 06:51:20;;;;;;;19.83;17.55;;;15.40;99.90;;;;;;4974429;28;20046;-80
2023/08/21 06:53:49;;;;;;;16.58;14.68;;;15.60;99.90;;;;;;4965880;28;20612;-81
2023/08/21 06:56:18;;;;;;;17.15;12.57;;;15.80;99.90;;;;;;4999644;28;20040;-81
2023/08/21 06:58:50;;;;;;;16.02;14.35;;;15.90;99.90;;;;;;4999671;28;20128;-81
2023/08/21 07:01:17;;;;;;;14.40;11.52;;;16.00;99.90;;;;;;4991282;28;20074;-81
2023/08/21 07:03:54;;;;;;;15.80;12.50;;;16.10;99.90;;;;;;4982739;28;20042;-81
2023/08/21 07:06:20;;;;;;;17.45;12.45;;;16.20;99.90;;;;;;4999327;28;20143;-80
2023/08/21 07:08:46;;;;;;;15.48;13.80;;;16.40;99.90;;;;;;4995151;28;20072;-80
2023/08/21 07:11:13;;;;;;;15.20;12.68;;;16.50;99.90;;;;;;4977685;28;20378;-80
2023/08/21 07:13:39;;;;;;;14.05;12.13;;;16.70;99.90;;;;;;4998020;28;20050;-80
2023/08/21 07:16:06;;;;;;;16.75;13.80;;;16.80;99.90;;;;;;4996700;28;20444;-80
2023/08/21 07:18:35;;;;;;;19.95;15.70;;;17.00;99.90;;;;;;4998952;28;20054;-81
2023/08/21 07:21:04;;;;;;;21.00;15.43;;;17.10;99.90;;;;;;4998921;28;20033;-80
2023/08/21 07:23:30;;;;;;;14.63;10.77;;;17.30;99.90;;;;;;4998976;28;20095;-80
2023/08/21 07:25:58;;;;;;;12.15;10.00;;;17.40;99.90;;;;;;4998348;28;20052;-81
2023/08/21 07:28:24;;;;;;;12.27;9.73;;;17.50;99.90;;;;;;4996766;28;20047;-81
2023/08/21 07:30:59;;;;;;;12.50;9.65;;;17.60;99.90;;;;;;4949978;28;20038;-81
2023/08/21 07:33:26;;;;;;;12.82;9.40;;;17.70;99.90;;;;;;4982346;28;20046;-80
2023/08/21 07:36:01;;;;;;;11.50;7.93;;;17.80;99.90;;;;;;4966016;28;20042;-81
2023/08/21 07:38:28;;;;;;;12.43;9.35;;;17.80;99.90;;;;;;4966820;28;20049;-80
2023/08/21 07:41:09;;;;;;;10.30;7.45;;;18.00;99.90;;;;;;4982157;28;20041;-80
2023/08/21 07:43:42;;;;;;;14.57;10.15;;;18.10;99.90;;;;;;4980145;28;20044;-80
2023/08/21 07:46:15;;;;;;;10.35;8.32;;;18.10;99.90;;;;;;4998393;28;20646;-81
2023/08/21 07:48:45;;;;;;;11.10;9.15;;;18.20;99.90;;;;;;4967158;28;20042;-80
2023/08/21 07:51:12;;;;;;;8.90;7.10;;;18.30;99.90;;;;;;4976866;28;20576;-80
2023/08/21 07:53:39;;;;;;;9.40;6.20;;;18.40;99.90;;;;;;4982651;28;20042;-81
2023/08/21 07:56:06;;;;;;;8.27;5.43;;;18.50;99.90;;;;;;4982336;28;20041;-80
2023/08/21 07:58:32;;;;;;;8.40;5.28;;;18.50;99.90;;;;;;4964450;28;20531;-80
2023/08/21 08:01:01;;;;;;;8.25;5.47;;;18.60;99.90;;;;;;4965984;28;20038;-80
2023/08/21 08:03:28;;;;;;;8.60;5.15;;;18.70;99.90;;;;;;4982990;28;20097;-81
2023/08/21 08:05:54;;;;;;;8.70;4.63;;;18.70;99.90;;;;;;4976659;28;20046;-81
2023/08/21 08:08:19;;;;;;;7.50;4.78;;;18.90;99.90;;;;;;4967112;28;20045;-81
2023/08/21 08:10:45;;;;;;;6.88;4.07;;;18.90;99.90;;;;;;4982847;28;20060;-80
2023/08/21 08:13:12;;;;;;;8.57;4.22;;;19.00;99.90;;;;;;4975432;28;20496;-81
2023/08/21 08:15:40;;;;;;;4.70;2.75;;;19.10;99.90;;;;;;4999011;28;20049;-81
2023/08/21 08:18:11;;;;;;;7.60;2.90;;;19.30;99.90;;;;;;4966652;28;20125;-79
2023/08/21 08:20:37;;;;;;;4.80;2.20;;;19.40;99.90;;;;;;4995385;28;20041;-80
2023/08/21 08:23:04;;;;;;;5.70;2.50;;;19.50;99.90;;;;;;4977209;28;20108;-80
2023/08/21 08:25:30;;;;;;;5.60;2.15;;;19.60;99.90;;;;;;4999746;28;20073;-81
2023/08/21 08:27:56;;;;;;;7.55;2.58;;;19.70;99.90;;;;;;5000092;28;20037;-80
2023/08/21 08:30:24;;;;;;;6.38;2.67;;;19.90;99.90;;;;;;4979789;28;20038;-81
2023/08/21 08:32:52;;;;;;;6.13;2.17;;;20.30;99.90;;;;;;4976240;28;20452;-81
2023/08/21 08:35:19;;;;;;;5.43;2.30;;;21.10;99.90;;;;;;5000265;28;20038;-81
2023/08/21 08:37:45;;;;;;;5.38;2.30;;;21.90;99.90;;;;;;5000878;28;20042;-80
2023/08/21 08:40:11;;;;;;;7.50;2.35;;;22.60;99.90;;;;;;4984702;28;20038;-79
2023/08/21 08:42:40;;;;;;;5.53;1.92;;;23.10;99.90;;;;;;4985220;28;20045;-81
2023/08/21 08:45:12;;;;;;;3.78;1.65;;;23.20;99.90;;;;;;4985230;28;20088;-80
2023/08/21 08:47:40;;;;;;;4.93;1.60;;;23.30;99.90;;;;;;5000614;28;20030;-81
2023/08/21 08:50:08;;;;;;;4.20;1.50;;;23.80;99.90;;;;;;4989432;28;20041;-80
2023/08/21 08:52:36;;;;;;;5.63;1.50;;;24.40;99.90;;;;;;4993030;28;20052;-80
2023/08/21 08:55:03;;;;;;;3.67;1.50;;;24.90;99.90;;;;;;4987469;28;20048;-81
2023/08/21 08:57:30;;;;;;;3.40;1.30;;;25.30;99.90;;;;;;4989704;28;20034;-81
2023/08/21 08:59:59;;;;;;;5.00;1.60;;;25.70;99.90;;;;;;4994567;28;20048;-80
2023/08/21 09:02:28;;;;;;;3.42;1.40;;;26.10;99.90;;;;;;4990172;28;20042;-80
2023/08/21 09:04:54;;;;;;;2.83;1.00;;;26.40;99.90;;;;;;4977755;28;20038;-80
2023/08/21 09:07:21;;;;;;;3.20;1.23;;;26.70;99.90;;;;;;4984318;28;20042;-81
2023/08/21 09:09:53;;;;;;;3.88;1.48;;;27.00;99.90;;;;;;4984421;28;20050;-81
2023/08/21 09:12:20;;;;;;;;;;;27.20;99.90;;;;;;4978739;28;20417;-81
2023/08/21 09:14:47;;;;;;;3.70;1.45;;;27.40;81.70;;;;;;4983245;28;20008;-80
2023/08/21 09:17:16;;;;;;;4.13;1.55;;;27.50;99.90;;;;;;4983905;28;20034;-81
2023/08/21 09:19:43;;;;;;;3.33;1.40;;;27.70;99.90;;;;;;4984735;28;20042;-81
2023/08/21 09:22:18;;;;;;;4.53;1.38;;;27.80;99.90;;;;;;4983649;28;20547;-81
2023/08/21 09:25:07;;;;;;;3.67;1.40;;;28.00;99.90;;;;;;4986620;28;20042;-81
2023/08/21 09:27:39;;;;;;;4.18;1.38;;;28.10;76.50;;;;;;4973742;28;20078;-81
2023/08/21 09:30:08;;;;;;;4.35;1.55;;;28.20;99.90;;;;;;5003152;28;20420;-81
2023/08/21 09:32:54;;;;;;;4.43;1.60;;;28.30;98.20;;;;;;4986702;28;20504;-81
2023/08/21 09:35:26;;;;;;;3.83;1.30;;;28.40;81.90;;;;;;4986593;28;20038;-80
2023/08/21 09:37:55;;;;;;;4.50;1.70;;;28.50;88.40;;;;;;4985632;28;20034;-81
2023/08/21 09:40:22;;;;;;;4.18;1.52;;;28.60;80.10;;;;;;4998037;28;20134;-81
2023/08/21 09:42:58;;;;;;;4.43;1.75;;;28.70;82.30;;;;;;4985569;28;20096;-80
2023/08/21 09:45:29;;;;;;;4.68;1.73;;;28.80;83.50;;;;;;4986157;28;20050;-81
2023/08/21 09:47:59;;;;;;;4.13;1.67;;;28.80;82.20;;;;;;4985776;28;20049;-81
2023/08/21 09:50:28;;;;;;;3.85;1.67;;;28.90;79.60;;;;;;4985833;28;20046;-80
2023/08/21 09:52:56;;;;;;;5.90;2.00;;;29.10;90.10;;;;;;4981485;28;20607;-81
2023/08/21 09:55:26;;;;;;;5.10;1.70;;;29.30;89.00;;;;;;4978503;28;20038;-81
2023/08/21 09:58:02;;;;;;;6.07;1.80;;;29.50;90.80;;;;;;4976023;28;20042;-81
2023/08/21 10:00:56;;;;;;;3.95;1.40;;;29.50;70.90;;;;;;5000632;28;20096;-81
2023/08/21 10:03:47;;;;;;;6.50;1.75;;;29.40;76.80;;;;;;4985025;28;20045;-81
2023/08/21 10:06:15;;;;;;;6.07;1.80;;;29.70;75.70;;;;;;4982897;28;20042;-81
2023/08/21 10:08:47;;;;;;;4.83;1.73;;;29.70;76.90;;;;;;4976426;28;20042;-81
2023/08/21 10:11:21;;;;;;;5.18;1.77;;;29.90;75.70;;;;;;4983960;28;20408;-81
2023/08/21 10:13:57;;;;;;;5.90;2.20;;;30.10;75.70;;;;;;4983081;28;20473;-82
2023/08/21 10:16:26;;;;;;;4.93;1.83;;;30.20;77.60;;;;;;4982780;28;20131;-81
2023/08/21 10:19:10;;;;;;;5.10;1.90;;;30.30;73.10;;;;;;4991797;28;20038;-84
2023/08/21 10:21:50;;;;;;;4.85;1.77;;;30.30;69.90;;;;;;4975692;28;20050;-81
2023/08/21 10:24:39;;;;;;;4.13;1.45;;;30.30;69.60;;;;;;4982412;28;20115;-82
2023/08/21 10:27:11;;;;;;;6.95;2.40;;;30.30;67.10;;;;;;4982016;28;20416;-81
2023/08/21 10:29:49;;;;;;;5.85;1.88;;;30.00;67.80;;;;;;4982600;28;20075;-81
2023/08/21 10:32:27;;;;;;;3.92;1.55;;;30.00;70.00;;;;;;4976616;28;20064;-81
2023/08/21 10:35:03;;;;;;;5.78;1.77;;;30.10;68.80;;;;;;4967858;28;20447;-82
2023/08/21 10:38:10;;;;;;;4.03;1.30;;;30.10;65.50;;;;;;4982334;28;20048;-81
2023/08/21 10:41:12;;;;;;;6.20;2.05;;;30.00;66.50;;;;;;4983720;28;20042;-81
2023/08/21 10:43:46;;;;;;;4.85;1.55;;;30.00;70.20;;;;;;4997564;28;20496;-81
2023/08/21 10:46:17;;;;;;;5.50;1.67;;;30.10;66.40;;;;;;4990526;28;20385;-81
2023/08/21 10:49:05;;;;;;;5.43;1.90;;;30.30;69.40;;;;;;4984400;28;20046;-82
2023/08/21 10:51:31;;;;;;;3.88;1.77;;;30.40;67.00;;;;;;4982524;28;20038;-82
2023/08/21 10:54:19;;;;;;;4.97;1.45;;;30.30;67.60;;;;;;4982889;28;20046;-81
2023/08/21 10:56:53;;;;;;;4.50;1.70;;;30.30;65.50;;;;;;4983099;28;20042;-81
2023/08/21 10:59:38;;;;;;;4.40;1.90;;;30.30;64.00;;;;;;4979844;28;20456;-81
2023/08/21 11:02:06;;;;;;;3.95;1.60;;;30.30;67.20;;;;;;4969764;28;20445;-81
2023/08/21 11:04:57;;;;;;;5.10;2.05;;;30.30;67.70;;;;;;4981700;28;20076;-81
2023/08/21 11:07:29;;;;;;;6.00;2.00;;;30.40;66.40;;;;;;4984337;28;20041;-81
2023/08/21 11:09:55;;;;;;;5.25;1.98;;;30.40;67.50;;;;;;4983100;28;20060;-81
2023/08/21 11:12:28;;;;;;;5.40;1.90;;;30.30;67.30;;;;;;4984522;28;20652;-81
2023/08/21 11:15:23;;;;;;;5.45;1.73;;;30.00;68.90;;;;;;4976610;28;20071;-81
2023/08/21 11:18:27;;;;;;;6.30;2.05;;;29.40;69.70;;;;;;4974161;28;20030;-81
2023/08/21 11:21:06;;;;;;;5.72;2.10;;;28.70;72.50;;;;;;5016586;28;20136;-81
2023/08/21 11:23:53;;;;;;;7.85;2.35;;;28.10;75.90;;;;;;4984279;28;20053;-81
2023/08/21 11:26:21;;;;;;;3.78;1.65;;;28.10;86.00;;;;;;4964178;28;20053;-81
2023/08/21 11:29:02;;;;;;;5.40;1.60;;;28.30;91.80;;;;;;4980724;28;20090;-82
2023/08/21 11:31:36;;;;;;;5.45;1.30;;;28.70;95.10;;;;;;4982009;28;20393;-81
2023/08/21 11:34:05;;;;;;;5.80;1.60;;;29.10;79.50;;;;;;4983547;28;20041;-81
2023/08/21 11:36:43;;;;;;;7.43;1.38;;;29.50;86.30;;;;;;4984435;28;20030;-82
2023/08/21 11:39:17;;;;;;;4.05;1.00;;;29.80;74.20;;;;;;4976901;28;20523;-81
2023/08/21 11:42:13;;;;;;;4.60;1.30;;;30.10;76.20;;;;;;4986875;28;20131;-82
2023/08/21 11:45:00;;;;;;;4.03;1.15;;;30.20;68.50;;;;;;4984421;28;20049;-82
2023/08/21 11:47:36;;;;;;;8.93;1.42;;;30.30;68.10;;;;;;5000412;28;20136;-80
2023/08/21 11:50:06;;;;;;;4.97;1.08;;;30.30;70.00;;;;;;4983948;28;20046;-80
2023/08/21 11:52:50;;;;;;;4.30;1.10;;;30.40;68.40;;;;;;4979466;28;20037;-81
2023/08/21 11:55:38;;;;;;;4.40;1.40;;;30.50;66.10;;;;;;4969131;28;20489;-81
2023/08/21 11:58:09;;;;;;;2.40;0.88;;;30.60;62.80;;;;;;4966998;28;20046;-81
2023/08/21 12:00:48;;;;;;;4.10;1.35;;;30.60;62.70;;;;;;4967228;28;20046;-80
2023/08/21 12:06:13;;;;;;;6.13;1.40;;;30.80;63.00;;;;;;4995027;28;20101;-81
2023/08/21 12:08:49;;;;;;;4.90;1.33;;;30.80;63.50;;;;;;4986129;28;20519;-80
2023/08/21 12:11:15;;;;;;;5.35;1.10;;;30.90;63.30;;;;;;4984415;28;20117;-81
2023/08/21 12:13:53;;;;;;;3.60;1.00;;;30.90;64.70;;;;;;5003012;28;20046;-81
2023/08/21 12:16:33;;;;;;;4.13;1.23;;;30.40;62.90;;;;;;4986903;28;20057;-81
2023/08/21 12:19:02;;;;;;;5.82;1.35;;;29.90;65.40;;;;;;4985858;28;20044;-81
2023/08/21 12:21:39;;;;;;;4.47;1.70;;;29.80;65.40;;;;;;5001298;28;20042;-80
2023/08/21 12:24:14;;;;;;;4.75;1.05;;;30.00;66.30;;;;;;4975661;28;20132;-81
2023/08/21 12:26:58;;;;;;;3.95;1.30;;;30.40;69.10;;;;;;4965931;28;20166;-81
2023/08/21 12:29:32;;;;;;;4.20;1.20;;;30.80;67.80;;;;;;4983230;28;20525;-81
2023/08/21 12:32:04;;;;;;;3.92;1.10;;;31.00;64.70;;;;;;4988504;28;20042;-81
2023/08/21 12:34:38;;;;;;;4.05;1.38;;;31.30;65.30;;;;;;4988449;28;20110;-80
2023/08/21 12:37:08;;;;;;;7.03;1.35;;;31.50;63.00;;;;;;4995309;28;20092;-81
2023/08/21 12:39:44;;;;;;;4.82;1.30;;;31.70;65.20;;;;;;4987449;28;20050;-81
2023/08/21 12:42:10;;;;;;;4.68;1.50;;;31.90;62.60;;;;;;4977602;28;20053;-80
2023/08/21 12:44:41;;;;;;;4.35;1.20;;;32.10;61.50;;;;;;4977050;28;20045;-81
2023/08/21 12:47:19;;;;;;;5.47;1.40;;;32.00;60.00;;;;;;4982038;28;20174;-81
2023/08/21 12:49:50;;;;;;;4.28;1.30;;;32.00;59.10;;;;;;4982114;28;20041;-80
2023/08/21 12:52:22;;;;;;;3.42;1.30;;;32.00;60.90;;;;;;4980661;28;20049;-81
2023/08/21 12:55:07;;;;;;;4.45;1.30;;;32.20;63.60;;;;;;4988618;28;20042;-80
2023/08/21 12:57:33;;;;;;;4.40;1.50;;;32.40;60.90;;;;;;4980828;28;20046;-81
2023/08/21 13:00:01;;;;;;;6.13;1.33;;;32.50;60.80;;;;;;4977682;28;20048;-81
2023/08/21 13:02:27;;;;;;;5.13;1.70;;;32.80;61.70;;;;;;4992918;28;20053;-80
2023/08/21 13:04:59;;;;;;;3.80;1.38;;;32.80;60.80;;;;;;4942351;28;20045;-81
2023/08/21 13:07:33;;;;;;;5.87;1.30;;;32.80;60.00;;;;;;4958816;28;20505;-81
2023/08/21 13:10:04;;;;;;;3.78;1.27;;;32.80;57.90;;;;;;4980184;28;20281;-81
2023/08/21 13:12:32;;;;;;;4.72;1.45;;;32.70;59.30;;;;;;4979961;28;20049;-82
2023/08/21 13:15:06;;;;;;;3.70;1.38;;;32.80;60.10;;;;;;4981297;28;20047;-81
2023/08/21 13:17:44;;;;;;;4.10;1.10;;;32.90;58.80;;;;;;4981482;28;20096;-81
2023/08/21 13:20:25;;;;;;;3.65;1.00;;;32.90;58.30;;;;;;4981515;28;20057;-82
2023/08/21 13:22:54;;;;;;;3.75;0.88;;;32.70;56.40;;;;;;4972761;28;20096;-81